aviador You're here:

YAMB Decoded Metar

AMBERLEY in _UNIDENTIFIED
Report Time2017-12-16 18:30:00
UTC Time2017-12-16 18:53:08
Flight Rules vfr VFR
WindCalm
Visibility9999 m
Phenomena:N/A
Clouds:Broken 048 Hf
Expected CloudBase > 800 ft AGL from Temp-Dew spread
Ceiling4,800 ft
Temp20°C (ISA +5)
Dew Point18°C (88% RH)
QNH1014 hPa
Density Alt938 ft
Elevation92 ft
Report Wrong Elevation
Raw Report
YAMB 161830Z AUTO 00000KT 9999 // BKN048 20/18 Q1014=

Extra information for YAMB:More info

Metar Taf Metar & Taf Last 4 Metars F.Rules Stats Wind Profile Meteogram Temp Stats Airport Information Weather charts Add Link Nearby VenuesMetar ALERT Operation Metar Decoded Social comments